createdAt,value
2018-07-24T00:00:39.338Z,67.40
2018-07-24T00:03:08.664Z,66.80
2018-07-24T00:05:37.860Z,67.60
2018-07-24T00:08:07.189Z,67.70
2018-07-24T00:10:36.428Z,67.80
2018-07-24T00:13:05.687Z,67.80
2018-07-24T00:15:34.962Z,67.90
2018-07-24T00:18:04.181Z,67.80
2018-07-24T00:20:33.833Z,67.90
2018-07-24T00:23:03.067Z,68.10
2018-07-24T00:25:32.270Z,68.10
2018-07-24T00:28:01.461Z,68.30
2018-07-24T00:30:30.728Z,68.30
2018-07-24T00:32:59.957Z,68.40
2018-07-24T00:35:29.280Z,68.30
2018-07-24T00:37:58.483Z,68.50
2018-07-24T00:40:27.692Z,68.70
2018-07-24T00:42:56.928Z,68.90
2018-07-24T00:45:26.156Z,69.20
2018-07-24T00:47:55.374Z,69.10
2018-07-24T00:50:24.620Z,69.10
2018-07-24T00:52:54.022Z,69.00
2018-07-24T00:55:23.224Z,69.10
2018-07-24T00:57:52.483Z,69.30
2018-07-24T01:00:21.805Z,69.30
2018-07-24T01:02:51.049Z,69.50
2018-07-24T01:05:20.278Z,69.40
2018-07-24T01:07:49.552Z,69.60
2018-07-24T01:10:18.785Z,69.60
2018-07-24T01:12:47.981Z,69.50
2018-07-24T01:15:17.245Z,69.50
2018-07-24T01:17:46.449Z,69.40
2018-07-24T01:20:15.721Z,69.50
2018-07-24T01:22:44.940Z,69.70
2018-07-24T01:25:14.266Z,69.60
2018-07-24T01:27:43.477Z,69.50
2018-07-24T01:30:12.776Z,69.70
2018-07-24T01:32:41.978Z,69.80
2018-07-24T01:35:11.236Z,69.70
2018-07-24T01:37:40.440Z,69.70
2018-07-24T01:40:09.833Z,69.70
2018-07-24T01:42:39.048Z,69.90
2018-07-24T01:45:08.246Z,69.80
2018-07-24T01:47:37.470Z,70.00
2018-07-24T01:50:06.807Z,69.90
2018-07-24T01:52:36.038Z,69.90
2018-07-24T01:55:05.289Z,69.80
2018-07-24T01:57:34.524Z,69.80
2018-07-24T02:00:03.907Z,69.90
2018-07-24T02:02:33.153Z,69.90
2018-07-24T02:05:02.543Z,69.90
2018-07-24T02:07:31.760Z,69.90
2018-07-24T02:10:01.016Z,69.80
2018-07-24T02:12:30.340Z,69.70
2018-07-24T02:14:59.561Z,70.00
2018-07-24T02:17:28.769Z,70.00
2018-07-24T02:19:58.091Z,70.90
2018-07-24T02:22:27.306Z,70.10
2018-07-24T02:24:56.532Z,70.10
2018-07-24T02:27:25.734Z,70.30
2018-07-24T02:29:55.308Z,70.30
2018-07-24T02:32:24.530Z,71.10
2018-07-24T02:34:53.842Z,70.40
2018-07-24T02:37:23.101Z,70.30
2018-07-24T02:39:52.405Z,70.30
2018-07-24T02:42:21.672Z,70.30
2018-07-24T02:44:50.973Z,70.30
2018-07-24T02:47:20.179Z,70.40
2018-07-24T02:49:49.518Z,70.50
2018-07-24T02:52:18.701Z,70.60
2018-07-24T02:54:47.933Z,70.70
2018-07-24T02:57:17.129Z,70.80
2018-07-24T02:59:46.370Z,70.70
2018-07-24T03:02:15.905Z,70.80
2018-07-24T03:04:45.132Z,71.60
2018-07-24T03:07:14.419Z,70.70
2018-07-24T03:09:44.356Z,70.70
2018-07-24T03:12:13.572Z,70.70
2018-07-24T03:14:42.783Z,70.60
2018-07-24T03:17:12.056Z,70.70
2018-07-24T03:19:41.314Z,70.70
2018-07-24T03:22:10.536Z,70.70
2018-07-24T03:24:39.752Z,70.50
2018-07-24T03:27:08.979Z,70.60
2018-07-24T03:29:38.314Z,70.60
2018-07-24T03:32:07.611Z,70.70
2018-07-24T03:34:36.849Z,70.70
2018-07-24T03:37:06.238Z,70.70
2018-07-24T03:39:35.522Z,70.80
2018-07-24T03:42:04.741Z,70.90
2018-07-24T03:44:33.969Z,71.00
2018-07-24T03:47:03.178Z,71.00
2018-07-24T03:52:01.306Z,71.00
2018-07-24T03:54:30.528Z,71.10
2018-07-24T03:56:59.754Z,71.40
2018-07-24T03:59:29.099Z,71.50
2018-07-24T04:01:58.326Z,71.60
2018-07-24T04:04:27.529Z,71.50
2018-07-24T04:06:56.764Z,71.40
2018-07-24T04:09:26.096Z,71.40
2018-07-24T04:11:55.321Z,71.30
2018-07-24T04:14:24.561Z,71.40
2018-07-24T04:16:53.793Z,71.40
2018-07-24T04:19:23.121Z,71.80
2018-07-24T04:21:52.629Z,71.90
2018-07-24T04:24:21.905Z,72.00
2018-07-24T04:26:51.299Z,72.20
2018-07-24T04:29:20.712Z,72.30
2018-07-24T04:31:50.004Z,72.50
2018-07-24T04:34:19.768Z,72.50
2018-07-24T04:36:49.125Z,72.20
2018-07-24T04:39:18.847Z,72.20
2018-07-24T04:41:48.111Z,72.00
2018-07-24T04:44:17.397Z,71.80
2018-07-24T04:46:46.736Z,71.60
2018-07-24T04:49:16.192Z,71.20
2018-07-24T04:51:45.656Z,71.00
2018-07-24T04:54:15.042Z,71.00
2018-07-24T04:56:44.389Z,71.00
2018-07-24T04:59:13.777Z,70.80
2018-07-24T05:01:43.067Z,70.60
2018-07-24T05:04:12.387Z,70.60
2018-07-24T05:06:42.120Z,70.50
2018-07-24T05:09:13.607Z,70.40
2018-07-24T05:11:44.058Z,70.30
2018-07-24T05:14:13.415Z,70.20
2018-07-24T05:16:43.257Z,70.20
2018-07-24T05:19:12.485Z,70.20
2018-07-24T05:21:41.900Z,70.10
2018-07-24T05:24:11.185Z,70.10
2018-07-24T05:26:41.451Z,70.00
2018-07-24T05:29:10.872Z,69.90
2018-07-24T05:31:40.162Z,69.80
2018-07-24T05:34:09.442Z,69.80
2018-07-24T05:36:38.756Z,69.70
2018-07-24T05:39:10.769Z,69.70
2018-07-24T05:41:40.141Z,69.60
2018-07-24T05:44:10.013Z,69.60
2018-07-24T05:46:39.410Z,69.50
2018-07-24T05:49:08.713Z,69.50
2018-07-24T05:51:38.045Z,69.40
2018-07-24T05:54:07.413Z,69.30
2018-07-24T05:56:36.879Z,69.30
2018-07-24T05:59:06.208Z,69.20
2018-07-24T06:01:35.485Z,69.20
2018-07-24T06:04:04.830Z,69.20
2018-07-24T06:06:34.132Z,69.10
2018-07-24T06:09:04.015Z,69.10
2018-07-24T06:11:33.389Z,69.10
2018-07-24T06:14:02.721Z,69.10
2018-07-24T06:16:32.508Z,69.10
2018-07-24T06:19:01.877Z,69.00
2018-07-24T06:21:31.199Z,69.00
2018-07-24T06:24:00.525Z,68.90
2018-07-24T06:26:29.839Z,68.90
2018-07-24T06:28:59.188Z,68.90
2018-07-24T06:31:28.512Z,68.80
2018-07-24T06:33:58.356Z,68.80
2018-07-24T06:36:28.333Z,68.80
2018-07-24T06:38:58.181Z,68.80
2018-07-24T06:41:28.144Z,68.80
2018-07-24T06:43:57.960Z,68.80
2018-07-24T06:46:27.808Z,68.80
2018-07-24T06:48:58.141Z,68.70
2018-07-24T06:51:28.133Z,68.70
2018-07-24T06:53:58.127Z,68.70
2018-07-24T06:56:28.030Z,68.60
2018-07-24T06:58:58.132Z,68.80
2018-07-24T07:01:27.909Z,68.70
2018-07-24T07:03:57.566Z,68.60
2018-07-24T07:06:27.713Z,68.60
2018-07-24T07:09:07.124Z,68.50
2018-07-24T07:11:36.990Z,68.60
2018-07-24T07:14:07.196Z,68.50
2018-07-24T07:16:37.045Z,68.30
2018-07-24T07:19:07.397Z,68.40
2018-07-24T07:21:37.224Z,68.30
2018-07-24T07:24:07.632Z,68.40
2018-07-24T07:26:37.540Z,68.30
2018-07-24T07:29:07.667Z,68.30
2018-07-24T07:31:37.700Z,68.00
2018-07-24T07:34:07.685Z,68.20
2018-07-24T07:36:37.587Z,68.20
2018-07-24T07:39:10.186Z,68.10
2018-07-24T07:41:40.551Z,68.30
2018-07-24T07:44:10.430Z,68.40
2018-07-24T07:46:40.425Z,68.70
2018-07-24T07:49:10.724Z,67.80
2018-07-24T07:51:41.309Z,68.50
2018-07-24T07:56:40.337Z,68.40
2018-07-24T07:59:10.361Z,68.40
2018-07-24T08:01:40.323Z,68.30
2018-07-24T08:04:10.416Z,68.50
2018-07-24T08:06:40.463Z,68.30
2018-07-24T08:09:11.082Z,68.30
2018-07-24T08:11:40.812Z,68.30
2018-07-24T08:14:11.027Z,68.30
2018-07-24T08:16:40.895Z,68.30
2018-07-24T08:20:14.046Z,68.30
2018-07-24T08:22:43.752Z,68.30
2018-07-24T08:25:13.629Z,68.40
2018-07-24T08:27:43.507Z,68.40
2018-07-24T08:30:13.417Z,68.30
2018-07-24T08:32:43.263Z,68.30
2018-07-24T08:35:13.284Z,68.40
2018-07-24T08:37:43.259Z,68.40
2018-07-24T08:40:13.465Z,68.40
2018-07-24T08:42:43.325Z,68.30
2018-07-24T08:45:13.193Z,68.40
2018-07-24T08:47:43.055Z,68.40
2018-07-24T08:50:13.069Z,68.30
2018-07-24T08:52:42.570Z,69.00
2018-07-24T08:55:12.841Z,68.20
2018-07-24T08:57:42.729Z,68.20
2018-07-24T09:00:12.643Z,68.20
2018-07-24T09:02:42.629Z,68.20
2018-07-24T09:05:12.555Z,68.10
2018-07-24T09:07:42.458Z,68.10
2018-07-24T09:10:12.277Z,68.10
2018-07-24T09:12:41.990Z,68.00
2018-07-24T09:15:11.845Z,68.00
2018-07-24T09:17:41.667Z,68.00
2018-07-24T09:20:11.673Z,68.10
2018-07-24T09:22:41.688Z,68.10
2018-07-24T09:25:11.625Z,68.10
2018-07-24T09:27:41.568Z,68.10
2018-07-24T09:30:12.294Z,68.00
2018-07-24T09:32:42.423Z,68.00
2018-07-24T09:35:12.211Z,68.00
2018-07-24T09:37:42.339Z,68.10
2018-07-24T09:40:12.282Z,67.70
2018-07-24T09:42:41.656Z,68.30
2018-07-24T09:45:11.698Z,68.20
2018-07-24T09:47:42.230Z,68.20
2018-07-24T09:50:12.606Z,68.20
2018-07-24T09:52:42.595Z,68.50
2018-07-24T09:55:13.216Z,68.60
2018-07-24T09:57:43.009Z,68.40
2018-07-24T10:00:12.829Z,68.60
2018-07-24T10:02:42.969Z,68.50
2018-07-24T10:05:12.660Z,68.50
2018-07-24T10:07:42.635Z,68.50
2018-07-24T10:10:12.651Z,68.50
2018-07-24T10:12:42.578Z,68.50
2018-07-24T10:15:12.575Z,68.40
2018-07-24T10:17:42.524Z,68.40
2018-07-24T10:20:12.536Z,68.30
2018-07-24T10:22:42.519Z,68.30
2018-07-24T10:25:12.623Z,68.40
2018-07-24T10:27:42.464Z,68.30
2018-07-24T10:30:12.439Z,68.40
2018-07-24T10:32:42.316Z,68.40
2018-07-24T10:35:12.161Z,68.30
2018-07-24T10:37:42.073Z,68.30
2018-07-24T10:40:12.000Z,68.30
2018-07-24T10:42:41.848Z,68.20
2018-07-24T10:45:11.630Z,68.20
2018-07-24T10:47:41.515Z,68.30
2018-07-24T10:50:11.382Z,68.20
2018-07-24T10:52:41.288Z,68.20
2018-07-24T10:55:11.047Z,68.20
2018-07-24T11:00:10.151Z,68.10
2018-07-24T11:02:39.944Z,68.10
2018-07-24T11:05:10.360Z,68.10
2018-07-24T11:07:40.152Z,68.10
2018-07-24T11:10:09.889Z,68.00
2018-07-24T11:12:40.139Z,68.00
2018-07-24T11:15:10.098Z,68.00
2018-07-24T11:20:09.016Z,68.00
2018-07-24T11:22:38.974Z,68.00
2018-07-24T11:25:08.740Z,68.00
2018-07-24T11:27:38.945Z,68.00
2018-07-24T11:30:08.799Z,68.00
2018-07-24T11:32:38.616Z,68.00
2018-07-24T11:35:08.426Z,68.00
2018-07-24T11:37:38.288Z,68.00
2018-07-24T11:40:08.315Z,68.10
2018-07-24T11:42:38.412Z,68.00
2018-07-24T11:45:08.639Z,68.10
2018-07-24T11:47:38.569Z,68.10
2018-07-24T11:50:08.448Z,68.00
2018-07-24T11:52:38.389Z,68.10
2018-07-24T11:55:08.292Z,68.10
2018-07-24T12:00:07.767Z,68.00
2018-07-24T12:02:37.641Z,68.10
2018-07-24T12:05:07.796Z,68.00
2018-07-24T12:07:37.673Z,68.00
2018-07-24T12:10:08.051Z,68.00
2018-07-24T12:12:37.795Z,68.00
2018-07-24T12:15:09.086Z,68.70
2018-07-24T12:17:38.976Z,67.90
2018-07-24T12:20:10.017Z,67.90
2018-07-24T12:22:40.072Z,67.90
2018-07-24T12:25:09.770Z,67.80
2018-07-24T12:27:39.674Z,67.80
2018-07-24T12:30:09.687Z,67.80
2018-07-24T12:32:39.357Z,67.80
2018-07-24T12:35:09.529Z,67.80
2018-07-24T12:37:39.279Z,67.90
2018-07-24T12:40:09.111Z,67.80
2018-07-24T12:42:39.318Z,67.90
2018-07-24T12:45:09.254Z,67.90
2018-07-24T12:47:39.020Z,67.90
2018-07-24T12:50:08.913Z,67.90
2018-07-24T12:52:38.815Z,67.90
2018-07-24T12:55:08.698Z,68.00
2018-07-24T12:57:38.337Z,68.40
2018-07-24T13:00:08.221Z,68.80
2018-07-24T13:02:37.866Z,69.20
2018-07-24T13:05:07.682Z,69.30
2018-07-24T13:07:37.726Z,69.40
2018-07-24T13:10:07.668Z,69.30
2018-07-24T13:12:37.567Z,69.60
2018-07-24T13:15:07.361Z,69.70
2018-07-24T13:17:37.188Z,69.70
2018-07-24T13:20:07.056Z,69.80
2018-07-24T13:22:36.881Z,69.70
2018-07-24T13:25:06.849Z,69.80
2018-07-24T13:30:06.168Z,70.40
2018-07-24T13:32:36.074Z,69.90
2018-07-24T13:35:05.867Z,69.70
2018-07-24T13:37:35.652Z,69.80
2018-07-24T13:40:05.641Z,69.70
2018-07-24T13:42:35.453Z,69.70
2018-07-24T13:45:05.575Z,69.60
2018-07-24T13:47:34.988Z,69.60
2018-07-24T13:50:05.100Z,69.60
2018-07-24T13:52:34.969Z,69.50
2018-07-24T13:55:04.809Z,69.60
2018-07-24T13:57:34.086Z,69.60
2018-07-24T14:00:04.110Z,69.60
2018-07-24T14:02:33.950Z,69.70
2018-07-24T14:05:03.287Z,69.70
2018-07-24T14:07:32.727Z,69.70
2018-07-24T14:10:02.154Z,69.70
2018-07-24T14:12:31.431Z,69.60
2018-07-24T14:15:00.805Z,69.50
2018-07-24T14:17:30.230Z,69.50
2018-07-24T14:19:59.557Z,69.50
2018-07-24T14:22:28.933Z,69.40
2018-07-24T14:24:58.365Z,69.30
2018-07-24T14:27:27.728Z,69.20
2018-07-24T14:29:57.071Z,69.20
2018-07-24T14:32:26.405Z,69.20
2018-07-24T14:34:55.811Z,69.10
2018-07-24T14:37:25.195Z,68.90
2018-07-24T14:39:54.546Z,69.10
2018-07-24T14:42:23.875Z,69.10
2018-07-24T14:44:53.262Z,69.10
2018-07-24T14:47:22.590Z,69.10
2018-07-24T14:49:51.999Z,69.10
2018-07-24T14:52:21.324Z,69.00
2018-07-24T14:54:50.606Z,69.00
2018-07-24T14:57:19.911Z,68.90
2018-07-24T14:59:49.248Z,69.00
2018-07-24T15:02:18.531Z,69.00
2018-07-24T15:04:47.959Z,69.00
2018-07-24T15:07:17.312Z,69.00
2018-07-24T15:09:46.709Z,69.10
2018-07-24T15:12:16.073Z,69.00
2018-07-24T15:14:45.384Z,68.90
2018-07-24T15:17:15.147Z,68.80
2018-07-24T15:19:44.560Z,69.00
2018-07-24T15:22:13.876Z,69.10
2018-07-24T15:24:43.213Z,69.30
2018-07-24T15:27:12.489Z,69.30
2018-07-24T15:29:41.816Z,69.20
2018-07-24T15:32:12.826Z,69.10
2018-07-24T15:34:42.514Z,69.00
2018-07-24T15:37:11.834Z,69.00
2018-07-24T15:39:41.340Z,69.10
2018-07-24T15:42:11.849Z,69.10
2018-07-24T15:44:41.881Z,70.00
2018-07-24T15:47:12.020Z,69.10
2018-07-24T15:49:41.712Z,69.00
2018-07-24T15:52:11.159Z,69.20
2018-07-24T15:54:40.468Z,69.30
2018-07-24T15:57:10.313Z,69.10
2018-07-24T15:59:39.651Z,69.20
2018-07-24T16:02:15.424Z,69.10
2018-07-24T16:04:44.878Z,69.30
2018-07-24T16:07:14.246Z,69.20
2018-07-24T16:09:43.791Z,69.20
2018-07-24T16:12:13.209Z,69.20
2018-07-24T16:14:42.533Z,69.20
2018-07-24T16:17:12.280Z,69.30
2018-07-24T16:19:42.033Z,69.30
2018-07-24T16:22:11.719Z,69.30
2018-07-24T16:24:41.109Z,69.30
2018-07-24T16:27:10.616Z,69.30
2018-07-24T16:29:40.029Z,69.20
2018-07-24T16:32:10.026Z,69.30
2018-07-24T16:34:39.908Z,69.30
2018-07-24T16:37:09.307Z,69.20
2018-07-24T16:39:38.612Z,69.20
2018-07-24T16:42:07.879Z,69.30
2018-07-24T16:44:37.206Z,69.30
2018-07-24T16:49:35.385Z,69.20
2018-07-24T16:52:04.691Z,69.20
2018-07-24T16:54:34.350Z,69.20
2018-07-24T16:57:03.941Z,69.30
2018-07-24T16:59:33.435Z,69.10
2018-07-24T17:02:02.726Z,69.10
2018-07-24T17:04:35.037Z,69.10
2018-07-24T17:07:04.347Z,69.10
2018-07-24T17:09:33.667Z,69.10
2018-07-24T17:12:03.042Z,69.20
2018-07-24T17:14:32.540Z,69.20
2018-07-24T17:17:01.804Z,69.20
2018-07-24T17:19:31.244Z,69.20
2018-07-24T17:22:00.669Z,69.20
2018-07-24T17:24:30.057Z,69.20
2018-07-24T17:26:59.860Z,69.20
2018-07-24T17:29:30.272Z,69.30
2018-07-24T17:31:59.563Z,69.50
2018-07-24T17:34:28.832Z,69.50
2018-07-24T17:36:58.220Z,69.80
2018-07-24T17:39:27.517Z,70.00
2018-07-24T17:41:56.913Z,70.00
2018-07-24T17:44:26.236Z,70.60
2018-07-24T17:46:55.572Z,70.40
2018-07-24T17:49:24.979Z,70.30
2018-07-24T17:51:54.426Z,70.20
2018-07-24T17:54:23.776Z,70.20
2018-07-24T17:56:53.078Z,70.20
2018-07-24T17:59:22.823Z,70.10
2018-07-24T18:01:52.221Z,70.20
2018-07-24T18:04:21.511Z,70.10
2018-07-24T18:06:50.756Z,70.20
2018-07-24T18:09:20.200Z,70.10
2018-07-24T18:11:49.586Z,70.10
2018-07-24T18:14:18.897Z,70.00
2018-07-24T18:16:48.377Z,70.00
2018-07-24T18:19:17.785Z,70.90
2018-07-24T18:21:47.216Z,70.20
2018-07-24T18:24:16.603Z,70.10
2018-07-24T18:26:45.949Z,70.20
2018-07-24T18:29:15.372Z,70.20
2018-07-24T18:31:45.112Z,70.20
2018-07-24T18:34:14.531Z,70.40
2018-07-24T18:36:43.854Z,70.40
2018-07-24T18:39:13.295Z,70.40
2018-07-24T18:41:42.634Z,70.40
2018-07-24T18:44:12.039Z,70.50
2018-07-24T18:46:41.401Z,70.60
2018-07-24T18:49:10.867Z,70.60
2018-07-24T18:51:40.286Z,70.70
2018-07-24T18:54:09.681Z,70.70
2018-07-24T18:56:39.025Z,70.70
2018-07-24T18:59:08.532Z,70.60
2018-07-24T19:01:37.869Z,70.80
2018-07-24T19:04:07.361Z,71.10
2018-07-24T19:06:36.708Z,71.00
2018-07-24T19:09:08.797Z,70.90
2018-07-24T19:11:38.185Z,70.80
2018-07-24T19:14:07.792Z,70.80
2018-07-24T19:16:37.092Z,70.60
2018-07-24T19:19:06.631Z,70.50
2018-07-24T19:21:35.971Z,70.50
2018-07-24T19:24:05.348Z,70.50
2018-07-24T19:26:34.673Z,70.40
2018-07-24T19:29:04.004Z,70.30
2018-07-24T19:31:33.336Z,70.30
2018-07-24T19:36:31.362Z,70.40
2018-07-24T19:39:01.090Z,70.30
2018-07-24T19:41:30.445Z,70.30
2018-07-24T19:43:59.853Z,70.20
2018-07-24T19:46:29.200Z,70.20
2018-07-24T19:48:58.517Z,70.50
2018-07-24T19:51:27.829Z,71.10
2018-07-24T19:53:57.301Z,71.30
2018-07-24T19:56:26.593Z,71.30
2018-07-24T19:58:55.990Z,71.10
2018-07-24T20:01:25.513Z,70.80
2018-07-24T20:03:55.124Z,70.80
2018-07-24T20:06:24.373Z,70.50
2018-07-24T20:11:22.814Z,85.20
2018-07-24T20:13:52.022Z,88.40
2018-07-24T20:16:21.268Z,72.10
2018-07-24T20:18:50.542Z,66.00
2018-07-24T20:21:19.825Z,70.80
2018-07-24T20:23:49.125Z,66.60
2018-07-24T20:26:18.336Z,66.30
2018-07-24T20:28:47.726Z,65.50
2018-07-24T20:31:16.901Z,64.90
2018-07-24T20:33:46.096Z,65.20
2018-07-24T20:36:15.316Z,65.00
2018-07-24T20:38:44.532Z,64.40
2018-07-24T20:41:13.760Z,64.00
2018-07-24T20:43:42.992Z,64.50
2018-07-24T20:46:12.189Z,70.90
2018-07-24T20:48:41.421Z,80.00
2018-07-24T20:51:10.820Z,83.40
2018-07-24T20:53:40.010Z,80.50
2018-07-24T20:56:09.222Z,76.30
2018-07-24T20:58:38.556Z,87.00
2018-07-24T21:01:07.780Z,74.90
2018-07-24T21:03:37.054Z,76.00
2018-07-24T21:06:06.246Z,82.90
2018-07-24T21:08:35.460Z,77.10
2018-07-24T21:11:04.861Z,74.30
2018-07-24T21:13:34.088Z,74.90
2018-07-24T21:16:03.308Z,73.20
2018-07-24T21:18:32.507Z,75.30
2018-07-24T21:21:01.786Z,76.20
2018-07-24T21:23:37.562Z,76.20
2018-07-24T21:26:06.820Z,76.30
2018-07-24T21:28:36.034Z,76.80
2018-07-24T21:31:05.229Z,76.90
2018-07-24T21:33:34.469Z,77.20
2018-07-24T21:36:03.718Z,77.90
2018-07-24T21:38:32.924Z,78.10
2018-07-24T21:41:02.127Z,78.40
2018-07-24T21:43:31.348Z,78.00
2018-07-24T21:46:00.678Z,78.10
2018-07-24T21:48:29.888Z,78.40
2018-07-24T21:50:59.121Z,79.20
2018-07-24T21:53:28.319Z,79.60
2018-07-24T21:55:57.616Z,79.50
2018-07-24T21:58:26.890Z,79.60
2018-07-24T22:01:01.305Z,80.00
2018-07-24T22:03:30.530Z,80.50
2018-07-24T22:05:59.736Z,80.50
2018-07-24T22:08:29.008Z,80.90
2018-07-24T22:10:58.260Z,80.70
2018-07-24T22:13:27.473Z,80.80
2018-07-24T22:15:56.674Z,81.40
2018-07-24T22:18:26.005Z,81.00
2018-07-24T22:20:55.228Z,81.00
2018-07-24T22:23:24.463Z,81.40
2018-07-24T22:25:53.728Z,81.20
2018-07-24T22:28:23.034Z,81.40
2018-07-24T22:30:52.295Z,81.30
2018-07-24T22:33:21.533Z,81.70
2018-07-24T22:35:50.756Z,81.70
2018-07-24T22:38:19.956Z,81.60
2018-07-24T22:40:49.328Z,81.30
2018-07-24T22:43:18.575Z,81.30
2018-07-24T22:45:47.792Z,81.00
2018-07-24T22:48:17.024Z,81.10
2018-07-24T22:50:46.697Z,81.10
2018-07-24T22:53:15.928Z,81.10
2018-07-24T22:55:45.133Z,81.00
2018-07-24T22:58:14.348Z,80.60
2018-07-24T23:00:44.860Z,80.40
2018-07-24T23:03:14.062Z,80.30
2018-07-24T23:05:43.283Z,80.40
2018-07-24T23:08:12.489Z,80.70
2018-07-24T23:10:41.825Z,81.00
2018-07-24T23:13:11.048Z,81.10
2018-07-24T23:15:40.275Z,81.10
2018-07-24T23:18:09.501Z,80.90
2018-07-24T23:20:38.816Z,81.10
2018-07-24T23:23:08.389Z,81.00
2018-07-24T23:25:37.583Z,81.70
2018-07-24T23:28:07.048Z,81.50
2018-07-24T23:30:36.309Z,81.50
2018-07-24T23:33:05.624Z,81.00
2018-07-24T23:35:34.822Z,80.80
2018-07-24T23:38:04.052Z,80.90
2018-07-24T23:40:33.311Z,81.10
2018-07-24T23:43:02.515Z,81.40
2018-07-24T23:45:31.743Z,81.30
2018-07-24T23:48:00.948Z,81.40
2018-07-24T23:50:30.225Z,81.40
2018-07-24T23:52:59.450Z,81.20
2018-07-24T23:55:28.735Z,80.70
2018-07-24T23:57:57.946Z,80.50
